Time;durP1;ratioP1;P1;durP2;ratioP2;P2;SDS_P1;SDS_P2;PMS_P1;PMS_P2;Temp;Humidity;BMP_temperature;BMP_pressure;BME280_temperature;BME280_humidity;BME280_pressure;Samples;Min_cycle;Max_cycle;Signal;HPM_P1;HPM_P2
2022/10/11 00:00:39;;;;;;;15.73;3.28;;;6.20;99.90;;;;;;5057243;28;20490;-76
2022/10/11 00:03:05;;;;;;;18.40;3.00;;;6.30;99.90;;;;;;5054501;28;20048;-76
2022/10/11 00:05:31;;;;;;;18.52;3.05;;;6.40;99.90;;;;;;5062457;28;20041;-75
2022/10/11 00:07:57;;;;;;;21.40;3.17;;;6.40;99.90;;;;;;5063536;28;20154;-75
2022/10/11 00:10:22;;;;;;;14.07;3.53;;;6.40;99.90;;;;;;5055237;28;20032;-76
2022/10/11 00:12:51;;;;;;;21.35;3.30;;;6.50;99.90;;;;;;5056415;28;20101;-75
2022/10/11 00:15:19;;;;;;;21.90;4.15;;;6.40;99.90;;;;;;5070254;28;20051;-76
2022/10/11 00:17:45;;;;;;;13.85;2.92;;;6.40;99.90;;;;;;5053908;28;20090;-75
2022/10/11 00:20:12;;;;;;;21.85;3.88;;;6.50;99.90;;;;;;5067258;28;20075;-75
2022/10/11 00:22:39;;;;;;;20.33;3.45;;;6.40;99.90;;;;;;5069155;28;20538;-76
2022/10/11 00:25:06;;;;;;;14.27;3.22;;;6.40;99.90;;;;;;5065980;28;20101;-76
2022/10/11 00:27:34;;;;;;;14.75;3.50;;;6.40;99.90;;;;;;5068385;28;20559;-76
2022/10/11 00:29:59;;;;;;;14.90;3.17;;;6.40;99.90;;;;;;5059676;28;20066;-77
2022/10/11 00:32:26;;;;;;;14.07;3.25;;;6.30;99.90;;;;;;5034346;28;20040;-79
2022/10/11 00:34:52;;;;;;;19.27;3.95;;;6.30;99.90;;;;;;5063298;28;20427;-76
2022/10/11 00:37:18;;;;;;;22.83;4.57;;;6.40;99.90;;;;;;5053005;28;20097;-76
2022/10/11 00:39:43;;;;;;;17.85;3.30;;;6.30;99.90;;;;;;5072270;28;20148;-76
2022/10/11 00:42:12;;;;;;;15.43;2.97;;;6.20;99.90;;;;;;5022958;28;20450;-75
2022/10/11 00:44:42;;;;;;;15.45;3.15;;;6.30;99.90;;;;;;5072681;28;20093;-75
2022/10/11 00:47:11;;;;;;;20.63;3.17;;;6.10;99.90;;;;;;5053895;28;20109;-78
2022/10/11 00:49:45;;;;;;;19.73;3.42;;;6.10;99.90;;;;;;5071930;28;20063;-75
2022/10/11 00:52:30;;;;;;;17.33;2.83;;;6.10;99.90;;;;;;5072106;28;20396;-75
2022/10/11 00:55:00;;;;;;;19.25;4.78;;;6.00;99.90;;;;;;5072619;28;20048;-75
2022/10/11 00:57:30;;;;;;;14.88;3.60;;;5.90;99.90;;;;;;5056079;28;20044;-76
2022/10/11 00:59:56;;;;;;;19.42;3.05;;;5.90;99.90;;;;;;5071532;28;20424;-76
2022/10/11 01:02:23;;;;;;;18.90;3.35;;;5.80;99.90;;;;;;5026067;28;20896;-75
2022/10/11 01:04:49;;;;;;;22.05;3.78;;;5.90;99.90;;;;;;5072713;28;20054;-75
2022/10/11 01:07:17;;;;;;;24.08;3.03;;;5.80;99.90;;;;;;5055544;28;20106;-76
2022/10/11 01:09:43;;;;;;;21.27;3.20;;;6.00;99.90;;;;;;5055745;28;20068;-76
2022/10/11 01:12:29;;;;;;;20.95;3.47;;;5.90;99.90;;;;;;5056146;28;20047;-76
2022/10/11 01:15:37;;;;;;;21.80;2.83;;;5.90;99.90;;;;;;5054219;28;20048;-76
2022/10/11 01:18:26;;;;;;;20.95;3.08;;;6.00;99.90;;;;;;5045832;28;20052;-82
2022/10/11 01:21:23;;;;;;;15.90;2.40;;;6.00;99.90;;;;;;5068378;28;20379;-76
2022/10/11 01:24:05;;;;;;;18.08;2.83;;;6.00;99.90;;;;;;5065285;28;20040;-76
2022/10/11 01:26:53;;;;;;;16.27;3.25;;;6.00;99.90;;;;;;5068315;28;20182;-76
2022/10/11 01:29:43;;;;;;;13.63;2.78;;;5.90;99.90;;;;;;5065485;28;20134;-76
2022/10/11 01:32:53;;;;;;;14.23;2.42;;;5.90;99.90;;;;;;5051178;28;20458;-76
2022/10/11 01:35:40;;;;;;;19.83;3.75;;;5.80;99.90;;;;;;5035746;28;20064;-81
2022/10/11 01:38:36;;;;;;;10.98;2.28;;;5.80;99.90;;;;;;5059096;28;20515;-79
2022/10/11 01:41:09;;;;;;;21.30;2.60;;;5.70;99.90;;;;;;5050823;28;20463;-76
2022/10/11 01:43:37;;;;;;;15.52;2.92;;;5.70;99.90;;;;;;5071734;28;20117;-76
2022/10/11 01:46:06;;;;;;;18.30;2.55;;;5.80;99.90;;;;;;5055031;28;20051;-76
2022/10/11 01:48:32;;;;;;;14.40;3.00;;;5.80;99.90;;;;;;5071527;28;20055;-77
2022/10/11 01:51:01;;;;;;;10.95;2.03;;;5.80;99.90;;;;;;5054037;28;20048;-76
2022/10/11 01:53:29;;;;;;;14.32;2.40;;;5.90;99.90;;;;;;5051474;28;20054;-76
2022/10/11 01:56:07;;;;;;;16.90;3.10;;;5.80;99.90;;;;;;5047924;28;20497;-76
2022/10/11 01:58:54;;;;;;;15.95;2.40;;;5.80;99.90;;;;;;5069087;28;20052;-76
2022/10/11 02:01:40;;;;;;;11.90;2.80;;;5.70;99.90;;;;;;5058201;28;20048;-76
2022/10/11 02:04:26;;;;;;;17.98;3.33;;;5.70;99.90;;;;;;5059746;28;20146;-76
2022/10/11 02:06:57;;;;;;;21.70;2.87;;;5.70;99.90;;;;;;5054290;28;20059;-77
2022/10/11 02:09:35;;;;;;;12.30;2.15;;;5.70;99.90;;;;;;5048920;28;20438;-75
2022/10/11 02:12:10;;;;;;;23.50;2.95;;;5.70;99.90;;;;;;5051718;28;20055;-76
2022/10/11 02:14:41;;;;;;;16.42;2.92;;;5.70;99.90;;;;;;5072151;28;20044;-76
2022/10/11 02:17:15;;;;;;;22.45;2.92;;;5.60;99.90;;;;;;5053488;28;20048;-77
2022/10/11 02:19:45;;;;;;;17.35;2.30;;;5.60;99.90;;;;;;5071595;28;20101;-76
2022/10/11 02:22:20;;;;;;;13.77;2.50;;;5.70;99.90;;;;;;5069244;28;20102;-80
2022/10/11 02:24:49;;;;;;;17.27;2.92;;;5.70;99.90;;;;;;5065742;28;20386;-76
2022/10/11 02:27:19;;;;;;;18.63;3.67;;;5.60;99.90;;;;;;5070367;28;20414;-76
2022/10/11 02:29:48;;;;;;;14.68;2.92;;;5.60;99.90;;;;;;5063984;28;20127;-77
2022/10/11 02:32:16;;;;;;;17.83;2.72;;;5.60;99.90;;;;;;5050992;28;20058;-80
2022/10/11 02:34:56;;;;;;;16.67;2.60;;;5.50;99.90;;;;;;5068398;28;20084;-76
2022/10/11 02:37:34;;;;;;;22.02;2.70;;;5.70;99.90;;;;;;5069338;28;20052;-76
2022/10/11 02:40:09;;;;;;;15.85;2.65;;;5.60;99.90;;;;;;5064352;28;20070;-76
2022/10/11 02:42:47;;;;;;;14.75;2.50;;;5.50;99.90;;;;;;5053082;28;20844;-77
2022/10/11 02:45:26;;;;;;;13.80;2.60;;;5.50;99.90;;;;;;5069095;28;20079;-76
2022/10/11 02:47:52;;;;;;;23.85;3.00;;;5.50;99.90;;;;;;5053181;28;20059;-76
2022/10/11 02:50:20;;;;;;;14.75;2.45;;;5.70;99.90;;;;;;5057666;28;20036;-76
2022/10/11 02:52:46;;;;;;;23.17;3.05;;;5.50;99.90;;;;;;5064473;28;20140;-76
2022/10/11 02:55:11;;;;;;;24.77;2.95;;;5.40;99.90;;;;;;5049254;28;20745;-76
2022/10/11 02:57:37;;;;;;;19.70;3.40;;;5.30;99.90;;;;;;5069935;28;20048;-77
2022/10/11 03:00:04;;;;;;;16.33;4.18;;;5.30;99.90;;;;;;5068868;28;20048;-76
2022/10/11 03:02:30;;;;;;;14.13;4.32;;;5.30;99.90;;;;;;5068671;28;20055;-76
2022/10/11 03:04:55;;;;;;;16.80;3.22;;;5.40;99.90;;;;;;5052806;28;20047;-76
2022/10/11 03:07:21;;;;;;;10.98;2.60;;;5.30;99.90;;;;;;5069537;28;20075;-80
2022/10/11 03:09:47;;;;;;;12.73;2.88;;;5.30;99.90;;;;;;5051430;28;20120;-76
2022/10/11 03:12:12;;;;;;;19.77;2.55;;;5.30;99.90;;;;;;5052417;28;20102;-76
2022/10/11 03:14:38;;;;;;;19.33;3.03;;;5.30;99.90;;;;;;5043813;28;20037;-76
2022/10/11 03:17:04;;;;;;;13.45;2.65;;;5.30;99.90;;;;;;5060699;28;20471;-78
2022/10/11 03:19:30;;;;;;;18.85;2.83;;;5.30;99.90;;;;;;5048632;28;20563;-77
2022/10/11 03:21:55;;;;;;;19.42;2.58;;;5.20;99.90;;;;;;5052481;28;20122;-76
2022/10/11 03:24:21;;;;;;;22.45;3.72;;;5.20;99.90;;;;;;5048993;28;20465;-79
2022/10/11 03:26:47;;;;;;;16.92;3.00;;;5.20;99.90;;;;;;5026363;28;20801;-76
2022/10/11 03:29:12;;;;;;;17.85;2.72;;;5.00;99.90;;;;;;5061639;28;20048;-76
2022/10/11 03:31:38;;;;;;;16.30;2.78;;;5.00;99.90;;;;;;5038190;28;20037;-76
2022/10/11 03:34:04;;;;;;;23.00;3.20;;;5.10;99.90;;;;;;5056272;28;20036;-76
2022/10/11 03:36:30;;;;;;;9.88;2.38;;;4.90;99.90;;;;;;5074779;28;20056;-76
2022/10/11 03:38:55;;;;;;;12.05;2.38;;;4.90;99.90;;;;;;5068595;28;20186;-76
2022/10/11 03:41:21;;;;;;;24.58;2.90;;;5.00;99.90;;;;;;5054780;28;20090;-79
2022/10/11 03:43:47;;;;;;;25.45;2.83;;;4.80;99.90;;;;;;5052649;28;20056;-76
2022/10/11 03:46:12;;;;;;;13.38;2.90;;;4.90;99.90;;;;;;5063972;28;20551;-75
2022/10/11 03:48:38;;;;;;;36.30;4.25;;;4.90;99.90;;;;;;5068427;28;20066;-75
2022/10/11 03:51:04;;;;;;;16.27;3.00;;;4.80;99.90;;;;;;5054687;28;20049;-76
2022/10/11 03:53:30;;;;;;;17.17;2.80;;;4.90;99.90;;;;;;5050756;28;20051;-76
2022/10/11 03:55:55;;;;;;;15.35;2.70;;;4.80;99.90;;;;;;5027655;28;20470;-77
2022/10/11 03:58:22;;;;;;;10.57;2.35;;;4.90;99.90;;;;;;5071391;28;20048;-76
2022/10/11 04:00:48;;;;;;;12.68;3.45;;;4.90;99.90;;;;;;5053753;28;20049;-76
2022/10/11 04:03:14;;;;;;;19.13;2.47;;;4.90;99.90;;;;;;5024137;28;20045;-76
2022/10/11 04:05:39;;;;;;;15.68;2.80;;;4.90;99.90;;;;;;5030248;28;20118;-76
2022/10/11 04:08:05;;;;;;;23.63;3.05;;;5.00;99.90;;;;;;5050045;28;20063;-76
2022/10/11 04:10:31;;;;;;;15.88;2.70;;;4.90;99.90;;;;;;5064166;28;20539;-77
2022/10/11 04:12:57;;;;;;;17.42;3.10;;;5.00;99.90;;;;;;5050982;28;20225;-76
2022/10/11 04:15:23;;;;;;;16.08;2.92;;;5.30;99.90;;;;;;5062661;28;20044;-76
2022/10/11 04:17:48;;;;;;;24.55;3.00;;;5.10;99.90;;;;;;5034181;28;20043;-76
2022/10/11 04:20:14;;;;;;;18.08;2.60;;;5.20;99.90;;;;;;5052907;28;20052;-76
2022/10/11 04:22:40;;;;;;;17.63;2.90;;;5.10;99.90;;;;;;5052390;28;20095;-76
2022/10/11 04:25:07;;;;;;;18.63;3.20;;;5.10;99.90;;;;;;5050953;28;20170;-76
2022/10/11 04:27:34;;;;;;;15.30;3.67;;;5.10;99.90;;;;;;5069521;28;20044;-76
2022/10/11 04:29:59;;;;;;;18.83;3.00;;;5.10;99.90;;;;;;5058135;28;20041;-78
2022/10/11 04:32:25;;;;;;;12.60;2.95;;;5.00;99.90;;;;;;5048077;28;20047;-76
2022/10/11 04:34:52;;;;;;;20.35;3.50;;;5.00;99.90;;;;;;5065609;28;20049;-76
2022/10/11 04:37:18;;;;;;;16.85;2.65;;;5.10;99.90;;;;;;5065726;28;20430;-76
2022/10/11 04:39:43;;;;;;;21.35;2.95;;;5.00;99.90;;;;;;5045776;28;20048;-77
2022/10/11 04:42:09;;;;;;;19.38;3.33;;;5.00;99.90;;;;;;5050522;28;20055;-76
2022/10/11 04:44:35;;;;;;;18.42;3.30;;;4.90;99.90;;;;;;5063245;28;20040;-76
2022/10/11 04:47:01;;;;;;;18.27;2.90;;;4.90;99.90;;;;;;5050044;28;20090;-77
2022/10/11 04:49:27;;;;;;;15.48;3.13;;;4.90;99.90;;;;;;5050847;28;20119;-76
2022/10/11 04:51:52;;;;;;;18.02;3.10;;;4.80;99.90;;;;;;5046916;28;20151;-77
2022/10/11 04:54:18;;;;;;;20.05;4.32;;;4.80;99.90;;;;;;5064032;28;20484;-78
2022/10/11 04:56:44;;;;;;;16.75;3.30;;;4.80;99.90;;;;;;5049059;28;20170;-77
2022/10/11 04:59:10;;;;;;;22.73;3.33;;;4.70;99.90;;;;;;5032937;28;20067;-76
2022/10/11 05:01:36;;;;;;;16.75;3.38;;;4.70;99.90;;;;;;5063963;28;20045;-76
2022/10/11 05:04:02;;;;;;;19.92;3.78;;;4.60;99.90;;;;;;5048419;28;20803;-77
2022/10/11 05:06:27;;;;;;;17.50;3.60;;;4.50;99.90;;;;;;5064602;28;20044;-76
2022/10/11 05:08:53;;;;;;;17.52;3.90;;;4.50;99.90;;;;;;5067209;28;20458;-75
2022/10/11 05:11:19;;;;;;;10.32;3.90;;;4.60;99.90;;;;;;5051968;28;20056;-75
2022/10/11 05:13:45;;;;;;;16.10;3.30;;;4.60;99.90;;;;;;5046737;28;20049;-76
2022/10/11 05:16:12;;;;;;;24.35;4.55;;;4.60;99.90;;;;;;5058017;28;20052;-76
2022/10/11 05:18:38;;;;;;;18.27;3.42;;;4.60;99.90;;;;;;5047991;28;20501;-76
2022/10/11 05:21:07;;;;;;;19.15;3.90;;;4.70;99.90;;;;;;5068335;28;20494;-77
2022/10/11 05:23:34;;;;;;;19.05;5.00;;;4.70;99.90;;;;;;5053253;28;20127;-76
2022/10/11 05:26:01;;;;;;;24.77;4.53;;;4.70;99.90;;;;;;5068332;28;20463;-75
2022/10/11 05:28:27;;;;;;;21.27;5.25;;;4.80;99.90;;;;;;5053063;28;20121;-76
2022/10/11 05:30:53;;;;;;;21.15;6.70;;;4.90;99.90;;;;;;5052019;28;20040;-76
2022/10/11 05:33:19;;;;;;;16.17;6.53;;;5.00;99.90;;;;;;5069725;28;20059;-75
2022/10/11 05:35:45;;;;;;;18.48;5.30;;;5.20;99.90;;;;;;5050899;28;20143;-77
2022/10/11 05:38:11;;;;;;;19.63;5.57;;;5.10;99.90;;;;;;5053386;28;20135;-75
2022/10/11 05:40:37;;;;;;;19.65;4.53;;;5.20;99.90;;;;;;5063283;28;20066;-77
2022/10/11 05:43:03;;;;;;;19.42;4.50;;;5.20;99.90;;;;;;5072636;28;20044;-75
2022/10/11 05:45:31;;;;;;;19.75;4.32;;;5.20;99.90;;;;;;5060971;28;20109;-76
2022/10/11 05:47:57;;;;;;;30.40;4.88;;;5.20;99.90;;;;;;5060692;28;20044;-77
2022/10/11 05:50:23;;;;;;;18.10;4.38;;;5.20;99.90;;;;;;5045909;28;20037;-75
2022/10/11 05:52:49;;;;;;;15.65;3.90;;;5.20;99.90;;;;;;5062377;28;20405;-75
2022/10/11 05:55:15;;;;;;;22.58;4.07;;;5.20;99.90;;;;;;5052158;28;20048;-75
2022/10/11 05:57:40;;;;;;;17.10;4.25;;;5.20;99.90;;;;;;5065693;28;20123;-79
2022/10/11 06:00:06;;;;;;;27.05;5.10;;;5.20;99.90;;;;;;5052382;28;20273;-74
2022/10/11 06:02:33;;;;;;;14.68;4.35;;;5.20;99.90;;;;;;5049825;28;20101;-75
2022/10/11 06:04:59;;;;;;;18.30;4.97;;;5.20;99.90;;;;;;5038729;28;20040;-75
2022/10/11 06:07:24;;;;;;;18.30;4.68;;;5.20;99.90;;;;;;5071950;28;20455;-75
2022/10/11 06:09:50;;;;;;;17.15;4.07;;;5.20;99.90;;;;;;5063680;28;20060;-75
2022/10/11 06:12:17;;;;;;;16.55;4.93;;;5.20;99.90;;;;;;5035918;28;20568;-76
2022/10/11 06:14:43;;;;;;;14.18;3.60;;;5.20;99.90;;;;;;5019350;28;20155;-79
2022/10/11 06:17:09;;;;;;;15.68;4.07;;;5.10;99.90;;;;;;5052296;28;20045;-75
2022/10/11 06:19:35;;;;;;;17.17;4.00;;;5.10;99.90;;;;;;5052463;28;20398;-75
2022/10/11 06:22:01;;;;;;;20.90;4.35;;;5.10;99.90;;;;;;5049014;28;20056;-75
2022/10/11 06:24:26;;;;;;;20.33;4.22;;;5.20;99.90;;;;;;5055378;28;20056;-75
2022/10/11 06:26:53;;;;;;;15.68;3.90;;;5.20;99.90;;;;;;5053363;28;20043;-76
2022/10/11 06:29:18;;;;;;;15.73;4.35;;;5.20;99.90;;;;;;5066628;28;20053;-75
2022/10/11 06:31:44;;;;;;;20.92;4.13;;;5.30;99.90;;;;;;5052535;28;20055;-79
2022/10/11 06:34:10;;;;;;;17.00;4.65;;;5.30;99.90;;;;;;5036567;28;20108;-76
2022/10/11 06:36:35;;;;;;;15.93;4.45;;;5.40;99.90;;;;;;5035201;28;20051;-75
2022/10/11 06:39:01;;;;;;;21.98;5.05;;;5.50;99.90;;;;;;5067439;28;20488;-75
2022/10/11 06:41:29;;;;;;;25.20;5.13;;;5.50;99.90;;;;;;5063702;28;20079;-76
2022/10/11 06:43:55;;;;;;;19.60;5.65;;;5.60;99.90;;;;;;5054582;28;20048;-76
2022/10/11 06:46:23;;;;;;;14.30;4.05;;;5.70;99.90;;;;;;5051670;28;20390;-76
2022/10/11 06:48:50;;;;;;;16.27;4.50;;;5.70;99.90;;;;;;5071481;28;20040;-76
2022/10/11 06:51:19;;;;;;;17.48;5.55;;;5.80;99.90;;;;;;5053886;28;20066;-76
2022/10/11 06:53:54;;;;;;;17.23;5.40;;;5.80;99.90;;;;;;5055151;28;20592;-76
2022/10/11 06:56:20;;;;;;;24.98;5.18;;;5.80;99.90;;;;;;5070845;28;20581;-76
2022/10/11 06:58:46;;;;;;;15.52;5.47;;;6.00;99.90;;;;;;5071022;28;20123;-76
2022/10/11 07:01:15;;;;;;;15.45;5.10;;;5.90;99.90;;;;;;5053144;28;20733;-76
2022/10/11 07:03:41;;;;;;;16.58;5.13;;;6.00;99.90;;;;;;5053983;28;20044;-75
2022/10/11 07:06:09;;;;;;;20.40;4.97;;;6.00;99.90;;;;;;5052394;28;20120;-75
2022/10/11 07:08:35;;;;;;;18.00;4.57;;;6.00;99.90;;;;;;5070612;28;20076;-76
2022/10/11 07:11:07;;;;;;;19.42;5.18;;;6.10;99.90;;;;;;5052300;28;20396;-77
2022/10/11 07:13:33;;;;;;;15.45;4.55;;;6.10;99.90;;;;;;5054831;28;20091;-76
2022/10/11 07:16:03;;;;;;;11.32;4.60;;;6.20;99.90;;;;;;5053262;28;20078;-77
2022/10/11 07:18:30;;;;;;;17.20;5.70;;;6.20;99.90;;;;;;5038461;28;20048;-76
2022/10/11 07:20:55;;;;;;;21.98;4.93;;;6.30;99.90;;;;;;5054098;28;20052;-76
2022/10/11 07:23:22;;;;;;;13.93;4.10;;;6.40;99.90;;;;;;5053464;28;20051;-76
2022/10/11 07:25:48;;;;;;;19.15;3.90;;;6.50;99.90;;;;;;5053341;28;20086;-76
2022/10/11 07:28:14;;;;;;;20.40;5.05;;;6.80;99.90;;;;;;5053559;28;20489;-76
2022/10/11 07:30:41;;;;;;;16.95;4.47;;;6.60;99.90;;;;;;5070577;28;20047;-77
2022/10/11 07:33:07;;;;;;;16.70;4.57;;;6.60;99.90;;;;;;5050470;28;20056;-76
2022/10/11 07:35:36;;;;;;;14.35;4.32;;;6.70;99.90;;;;;;5048052;28;20044;-75
2022/10/11 07:38:04;;;;;;;16.75;4.22;;;6.80;99.90;;;;;;5061785;28;20689;-77
2022/10/11 07:40:29;;;;;;;20.17;4.47;;;6.80;99.90;;;;;;5037458;28;20059;-76
2022/10/11 07:42:56;;;;;;;14.27;3.80;;;6.90;99.90;;;;;;5070718;28;20044;-76
2022/10/11 07:45:29;;;;;;;17.17;4.60;;;7.00;99.90;;;;;;5051593;28;20040;-76
2022/10/11 07:47:58;;;;;;;16.40;3.83;;;7.10;99.90;;;;;;5070608;28;20059;-80
2022/10/11 07:50:24;;;;;;;19.63;4.43;;;7.10;99.90;;;;;;5050368;28;20040;-76
2022/10/11 07:52:50;;;;;;;17.95;4.15;;;7.20;99.90;;;;;;5044771;28;20400;-75
2022/10/11 07:55:16;;;;;;;17.42;4.25;;;7.30;99.90;;;;;;5070042;28;20901;-77
2022/10/11 07:57:42;;;;;;;12.20;3.85;;;7.40;99.90;;;;;;5034857;28;20052;-76
2022/10/11 08:00:08;;;;;;;16.55;4.35;;;7.50;99.90;;;;;;5053328;28;20060;-76
2022/10/11 08:02:33;;;;;;;15.80;3.90;;;7.60;99.90;;;;;;5070207;28;20508;-75
2022/10/11 08:04:59;;;;;;;15.18;4.40;;;7.60;99.90;;;;;;5037285;28;20040;-76
2022/10/11 08:07:25;;;;;;;18.02;3.80;;;7.80;99.90;;;;;;5037501;28;20089;-77
2022/10/11 08:09:51;;;;;;;17.73;4.18;;;7.80;99.90;;;;;;5053976;28;20044;-76
2022/10/11 08:12:17;;;;;;;16.02;3.47;;;8.00;99.90;;;;;;5040338;28;20609;-77
2022/10/11 08:14:43;;;;;;;16.05;4.28;;;8.10;99.90;;;;;;5072556;28;20044;-76
2022/10/11 08:17:09;;;;;;;17.50;3.65;;;8.10;99.90;;;;;;5073183;28;20389;-76
2022/10/11 08:19:34;;;;;;;15.07;6.15;;;8.20;99.90;;;;;;5074466;28;20047;-76
2022/10/11 08:22:00;;;;;;;17.50;5.55;;;8.40;99.90;;;;;;5055814;28;20091;-76
2022/10/11 08:24:26;;;;;;;12.50;4.25;;;8.30;99.90;;;;;;5058007;28;20044;-76
2022/10/11 08:26:51;;;;;;;23.80;4.93;;;8.50;99.90;;;;;;5023825;28;20044;-77
2022/10/11 08:29:17;;;;;;;17.38;4.30;;;8.60;99.90;;;;;;5068415;28;20560;-76
2022/10/11 08:31:43;;;;;;;15.48;4.00;;;8.70;99.90;;;;;;5066477;28;20047;-76
2022/10/11 08:34:10;;;;;;;17.13;4.38;;;8.90;99.90;;;;;;5056741;28;20052;-76
2022/10/11 08:36:36;;;;;;;14.55;3.50;;;9.00;99.90;;;;;;5021499;28;20524;-76
2022/10/11 08:39:04;;;;;;;12.60;2.95;;;9.10;99.90;;;;;;5056294;28;20058;-80
2022/10/11 08:41:47;;;;;;;10.95;2.72;;;9.20;99.90;;;;;;5057464;28;20060;-75
2022/10/11 08:44:37;;;;;;;12.30;2.60;;;9.30;99.90;;;;;;5073500;28;20055;-76
2022/10/11 08:47:26;;;;;;;13.95;2.70;;;9.30;99.90;;;;;;5073484;28;20052;-78
2022/10/11 08:49:53;;;;;;;13.57;2.60;;;9.30;99.90;;;;;;5057051;28;20044;-76
2022/10/11 08:52:33;;;;;;;13.93;3.80;;;9.40;99.90;;;;;;5073413;28;20119;-77
2022/10/11 08:55:06;;;;;;;12.98;2.80;;;9.50;99.90;;;;;;5056344;28;20035;-77
2022/10/11 08:57:36;;;;;;;13.65;2.28;;;9.60;99.90;;;;;;5073802;28;20044;-77
2022/10/11 09:00:07;;;;;;;15.35;2.97;;;9.70;99.90;;;;;;5069843;28;20494;-77
2022/10/11 09:02:33;;;;;;;11.18;2.58;;;9.70;99.90;;;;;;5082974;28;20040;-77
2022/10/11 09:05:01;;;;;;;15.27;2.00;;;9.80;99.90;;;;;;5056618;28;20051;-77
2022/10/11 09:07:37;;;;;;;15.70;2.95;;;9.80;99.90;;;;;;5056158;28;20116;-77
2022/10/11 09:10:44;;;;;;;20.02;2.97;;;10.00;99.90;;;;;;5056813;28;20044;-80
2022/10/11 09:13:41;;;;;;;17.88;2.72;;;10.10;99.90;;;;;;4953375;28;20101;-77
2022/10/11 09:16:30;;;;;;;11.20;2.33;;;10.20;99.90;;;;;;5053078;28;20060;-78
2022/10/11 09:19:23;;;;;;;13.02;2.42;;;10.20;99.90;;;;;;5066209;28;20056;-77
2022/10/11 09:22:08;;;;;;;12.57;2.28;;;10.40;99.90;;;;;;5072953;28;20047;-76
2022/10/11 09:24:49;;;;;;;13.80;2.63;;;10.40;99.90;;;;;;5056522;28;20051;-77
2022/10/11 09:27:19;;;;;;;13.65;2.30;;;10.50;99.90;;;;;;5071597;28;20044;-77
2022/10/11 09:29:57;;;;;;;8.88;2.22;;;10.70;99.90;;;;;;5052229;28;20036;-77
2022/10/11 09:32:29;;;;;;;13.77;2.70;;;10.80;99.90;;;;;;5055980;28;20043;-77
2022/10/11 09:35:04;;;;;;;11.18;2.17;;;10.90;99.90;;;;;;5068757;28;20048;-77
2022/10/11 09:37:44;;;;;;;12.35;1.90;;;11.20;99.90;;;;;;5051638;28;20138;-76
2022/10/11 09:40:09;;;;;;;14.98;2.60;;;11.30;99.90;;;;;;5063097;28;20120;-78
2022/10/11 09:42:35;;;;;;;8.68;2.03;;;11.50;99.90;;;;;;5063961;28;20117;-77
2022/10/11 09:45:01;;;;;;;17.65;2.65;;;11.70;99.90;;;;;;5051772;28;20150;-77
2022/10/11 09:47:29;;;;;;;12.07;2.33;;;11.80;99.90;;;;;;5051914;28;20048;-77
2022/10/11 09:50:05;;;;;;;12.48;2.45;;;11.90;99.90;;;;;;5051670;28;20048;-78
2022/10/11 09:52:31;;;;;;;9.85;1.90;;;12.10;99.90;;;;;;5072313;28;20625;-77
2022/10/11 09:54:59;;;;;;;9.70;2.08;;;12.30;99.90;;;;;;5038876;28;20120;-77
2022/10/11 09:57:29;;;;;;;9.32;1.88;;;12.40;99.90;;;;;;5071973;28;20135;-76
2022/10/11 09:59:59;;;;;;;11.90;2.15;;;12.60;99.90;;;;;;5054899;28;20085;-76
2022/10/11 10:02:29;;;;;;;15.40;2.67;;;12.90;99.90;;;;;;5054593;28;20052;-77
2022/10/11 10:04:54;;;;;;;12.82;2.20;;;13.10;99.90;;;;;;5022811;28;20044;-76
2022/10/11 10:07:20;;;;;;;10.95;2.20;;;13.20;99.90;;;;;;5035332;28;20063;-76
2022/10/11 10:09:46;;;;;;;14.40;2.63;;;13.20;96.50;;;;;;5071815;28;20032;-76
2022/10/11 10:12:18;;;;;;;17.40;2.53;;;13.30;99.90;;;;;;5070714;28;20081;-80
2022/10/11 10:14:54;;;;;;;9.60;2.20;;;13.50;99.90;;;;;;5055743;28;20080;-76
2022/10/11 10:17:20;;;;;;;13.40;2.08;;;13.60;31.20;;;;;;5070971;28;20150;-77
2022/10/11 10:19:58;;;;;;;16.70;3.03;;;13.80;28.40;;;;;;5071838;28;20119;-77
2022/10/11 10:22:29;;;;;;;12.13;2.28;;;14.00;22.10;;;;;;5070861;28;20044;-77
2022/10/11 10:24:57;;;;;;;9.48;2.03;;;14.30;88.90;;;;;;5071818;28;20047;-77
2022/10/11 10:27:26;;;;;;;12.10;2.35;;;14.50;76.30;;;;;;5070218;28;20095;-77
2022/10/11 10:30:06;;;;;;;15.15;2.35;;;14.60;38.90;;;;;;5071674;28;20059;-77
2022/10/11 10:32:52;;;;;;;10.50;2.40;;;14.60;1.00;;;;;;5066040;28;20079;-77
2022/10/11 10:35:39;;;;;;;12.65;3.28;;;14.70;1.00;;;;;;5049168;28;20061;-76
2022/10/11 10:38:24;;;;;;;10.40;2.22;;;14.70;1.00;;;;;;5070861;28;20075;-78
2022/10/11 10:40:52;;;;;;;10.68;2.25;;;14.70;16.80;;;;;;5054342;28;20128;-77
2022/10/11 10:43:27;;;;;;;13.50;2.25;;;14.70;1.00;;;;;;5067956;28;20044;-76
2022/10/11 10:46:03;;;;;;;10.93;2.78;;;14.60;1.00;;;;;;5035672;28;20044;-76
2022/10/11 10:49:09;;;;;;;11.15;2.55;;;14.70;1.00;;;;;;5055297;28;20044;-76
2022/10/11 10:51:53;;;;;;;14.10;2.30;;;15.00;1.00;;;;;;5055793;28;20083;-77
2022/10/11 10:54:56;;;;;;;11.93;2.17;;;15.20;1.00;;;;;;5035078;28;20096;-77
2022/10/11 10:57:24;;;;;;;12.55;2.13;;;15.40;99.90;;;;;;5061027;28;20056;-77
2022/10/11 11:00:16;;;;;;;16.55;2.63;;;15.50;1.00;;;;;;5065166;28;20062;-77
2022/10/11 11:02:56;;;;;;;11.50;2.10;;;15.50;1.00;;;;;;5051481;28;20053;-77
2022/10/11 11:05:47;;;;;;;10.70;1.95;;;15.40;1.00;;;;;;5061562;28;20047;-77
2022/10/11 11:08:46;;;;;;;10.82;1.85;;;15.30;1.00;;;;;;5058568;28;20576;-77
2022/10/11 11:11:54;;;;;;;13.95;2.13;;;15.40;1.00;;;;;;5066321;28;20131;-77
2022/10/11 11:14:35;;;;;;;19.42;3.20;;;15.50;1.00;;;;;;5055848;28;20488;-80
2022/10/11 11:17:10;;;;;;;10.68;1.98;;;15.60;99.90;;;;;;5058388;28;20052;-79
2022/10/11 11:19:46;;;;;;;13.38;2.22;;;15.70;1.00;;;;;;5051627;28;20048;-77
2022/10/11 11:22:26;;;;;;;19.15;5.45;;;15.90;99.90;;;;;;5058217;28;20044;-78
2022/10/11 11:25:23;;;;;;;8.52;1.77;;;15.80;99.90;;;;;;5060297;28;20131;-77
2022/10/11 11:28:10;;;;;;;8.93;2.10;;;15.80;99.90;;;;;;5035895;28;20044;-77
2022/10/11 11:31:02;;;;;;;20.52;7.38;;;15.90;1.00;;;;;;5067512;28;20037;-77
2022/10/11 11:33:28;;;;;;;16.85;2.65;;;16.30;4.20;;;;;;5051027;28;20056;-77
2022/10/11 11:36:00;;;;;;;10.00;2.85;;;16.80;5.40;;;;;;5054180;28;20047;-76
2022/10/11 11:38:45;;;;;;;9.63;2.55;;;17.10;99.90;;;;;;5053327;28;20047;-77
2022/10/11 11:41:23;;;;;;;9.85;2.10;;;17.40;99.90;;;;;;5054741;28;20109;-77
2022/10/11 11:43:54;;;;;;;13.75;2.47;;;17.80;99.90;;;;;;5070477;28;20048;-77
2022/10/11 11:46:26;;;;;;;7.18;1.90;;;17.90;99.90;;;;;;5054506;28;20059;-77
2022/10/11 11:48:55;;;;;;;7.18;1.65;;;17.80;99.90;;;;;;5058870;28;20513;-78
2022/10/11 11:51:29;;;;;;;8.77;1.83;;;17.60;99.90;;;;;;5073907;28;20397;-77
2022/10/11 11:54:37;;;;;;;11.02;2.03;;;17.70;99.90;;;;;;5075098;28;20184;-78
2022/10/11 11:57:17;;;;;;;9.10;1.70;;;17.70;99.90;;;;;;5074955;28;20067;-78
2022/10/11 11:59:49;;;;;;;7.63;1.83;;;17.80;99.90;;;;;;5072142;28;20090;-77
2022/10/11 12:02:50;;;;;;;15.18;2.35;;;18.00;99.90;;;;;;5057180;28;20101;-77
2022/10/11 12:05:26;;;;;;;12.77;2.17;;;18.00;99.90;;;;;;5073952;28;20056;-78
2022/10/11 12:08:30;;;;;;;10.05;2.00;;;18.00;99.90;;;;;;5073303;28;20077;-78
2022/10/11 12:11:00;;;;;;;7.47;1.70;;;17.80;99.90;;;;;;4957700;28;20046;-78
2022/10/11 12:13:27;;;;;;;9.55;2.28;;;17.70;99.90;;;;;;5033152;28;20758;-77
2022/10/11 12:16:11;;;;;;;9.15;1.67;;;17.70;99.90;;;;;;5071393;28;20055;-77
2022/10/11 12:18:50;;;;;;;6.47;1.75;;;17.60;99.90;;;;;;5073079;28;20063;-77
2022/10/11 12:21:21;;;;;;;9.75;2.13;;;17.40;99.90;;;;;;5074756;28;20051;-78
2022/10/11 12:23:49;;;;;;;7.80;2.00;;;17.30;99.90;;;;;;5055988;28;20051;-78
2022/10/11 12:26:26;;;;;;;10.57;2.20;;;17.20;99.90;;;;;;5073482;28;20401;-77
2022/10/11 12:29:16;;;;;;;8.02;1.83;;;17.10;99.90;;;;;;5072367;28;20062;-78
2022/10/11 12:31:43;;;;;;;8.10;1.98;;;17.10;99.90;;;;;;5057129;28;20083;-77
2022/10/11 12:34:08;;;;;;;7.90;1.98;;;17.20;99.90;;;;;;5073845;28;20044;-77
2022/10/11 12:36:49;;;;;;;10.48;2.17;;;17.10;99.90;;;;;;5073665;28;20048;-78
2022/10/11 12:39:20;;;;;;;10.38;1.73;;;17.10;99.90;;;;;;5073841;28;20145;-78
2022/10/11 12:41:46;;;;;;;10.07;2.25;;;17.10;99.90;;;;;;5056718;28;20051;-78
2022/10/11 12:44:21;;;;;;;10.35;1.85;;;17.00;99.90;;;;;;5057195;28;20048;-77
2022/10/11 12:46:49;;;;;;;8.45;1.85;;;17.10;99.90;;;;;;5056116;28;20040;-78
2022/10/11 12:49:27;;;;;;;13.93;1.88;;;17.20;99.90;;;;;;5073944;28;20044;-79
2022/10/11 12:51:59;;;;;;;13.05;1.88;;;17.20;99.90;;;;;;5056327;28;20540;-77
2022/10/11 12:54:51;;;;;;;9.07;1.95;;;17.20;99.90;;;;;;5073085;28;20063;-80
2022/10/11 12:57:25;;;;;;;10.90;2.28;;;17.20;99.90;;;;;;5073992;28;20059;-78
2022/10/11 12:59:51;;;;;;;9.05;1.83;;;17.20;99.90;;;;;;5055830;28;20051;-77
2022/10/11 13:02:28;;;;;;;11.13;2.22;;;17.10;99.90;;;;;;5073815;28;20427;-78
2022/10/11 13:05:19;;;;;;;13.35;2.83;;;17.10;99.90;;;;;;5043668;28;20097;-77
2022/10/11 13:07:45;;;;;;;8.60;2.08;;;17.20;99.90;;;;;;5069245;28;20036;-77